createdAt,value
2023-02-11T00:00:33.972Z,85.35
2023-02-11T00:01:36.749Z,86.20
2023-02-11T00:02:39.102Z,87.93
2023-02-11T00:03:41.490Z,88.67
2023-02-11T00:04:43.863Z,88.38
2023-02-11T00:05:46.194Z,85.93
2023-02-11T00:06:48.574Z,87.70
2023-02-11T00:07:50.957Z,86.55
2023-02-11T00:08:53.521Z,89.02
2023-02-11T00:09:56.102Z,86.62
2023-02-11T00:10:58.597Z,85.83
2023-02-11T00:12:00.976Z,85.17
2023-02-11T00:13:03.366Z,83.47
2023-02-11T00:14:08.070Z,84.77
2023-02-11T00:15:10.741Z,83.68
2023-02-11T00:16:18.843Z,83.88
2023-02-11T00:17:21.394Z,83.25
2023-02-11T00:18:23.735Z,81.85
2023-02-11T00:19:26.082Z,84.95
2023-02-11T00:20:28.432Z,86.67
2023-02-11T00:21:30.851Z,92.20
2023-02-11T00:22:33.196Z,94.55
2023-02-11T00:23:36.394Z,99.77
2023-02-11T00:24:38.778Z,106.80
2023-02-11T00:25:42.615Z,117.17
2023-02-11T00:26:45.015Z,114.25
2023-02-11T00:27:47.404Z,112.47
2023-02-11T00:28:51.735Z,112.78
2023-02-11T00:29:54.128Z,111.57
2023-02-11T00:30:57.683Z,112.22
2023-02-11T00:32:05.260Z,110.83
2023-02-11T00:33:07.712Z,106.10
2023-02-11T00:34:10.099Z,102.60
2023-02-11T00:35:12.615Z,100.78
2023-02-11T00:36:17.605Z,100.20
2023-02-11T00:37:19.950Z,97.97
2023-02-11T00:38:22.314Z,99.12
2023-02-11T00:39:25.183Z,96.10
2023-02-11T00:40:27.812Z,89.42
2023-02-11T00:41:30.654Z,88.75
2023-02-11T00:42:33.139Z,90.23
2023-02-11T00:43:35.896Z,90.32
2023-02-11T00:44:40.574Z,88.25
2023-02-11T00:45:42.964Z,88.97
2023-02-11T00:46:45.444Z,87.75
2023-02-11T00:47:48.039Z,87.80
2023-02-11T00:48:51.985Z,87.28
2023-02-11T00:49:54.366Z,91.42
2023-02-11T00:50:56.849Z,88.38
2023-02-11T00:51:59.260Z,87.50
2023-02-11T00:53:01.633Z,87.05
2023-02-11T00:54:04.609Z,89.83
2023-02-11T00:55:07.772Z,89.37
2023-02-11T00:56:10.241Z,89.35
2023-02-11T00:57:12.677Z,89.65
2023-02-11T00:58:15.045Z,88.45
2023-02-11T00:59:58.348Z,86.23
2023-02-11T01:01:00.827Z,89.60
2023-02-11T01:02:03.448Z,88.87
2023-02-11T01:03:06.344Z,87.13
2023-02-11T01:04:08.701Z,82.98
2023-02-11T01:05:11.110Z,80.67
2023-02-11T01:06:14.010Z,79.95
2023-02-11T01:07:16.390Z,80.60
2023-02-11T01:08:18.896Z,80.55
2023-02-11T01:09:21.285Z,78.38
2023-02-11T01:10:23.632Z,79.72
2023-02-11T01:11:26.276Z,76.92
2023-02-11T01:12:28.613Z,79.65
2023-02-11T01:13:33.290Z,78.18
2023-02-11T01:14:35.661Z,77.23
2023-02-11T01:15:38.141Z,78.95
2023-02-11T01:16:40.492Z,77.78
2023-02-11T01:17:42.992Z,78.32
2023-02-11T01:18:46.082Z,75.57
2023-02-11T01:19:48.694Z,75.72
2023-02-11T01:20:52.332Z,75.70
2023-02-11T01:21:54.652Z,75.92
2023-02-11T01:22:59.355Z,74.70
2023-02-11T01:24:01.753Z,75.55
2023-02-11T01:25:04.340Z,73.67
2023-02-11T01:26:06.802Z,74.65
2023-02-11T01:27:09.117Z,75.42
2023-02-11T01:28:18.982Z,76.12
2023-02-11T01:29:21.563Z,75.35
2023-02-11T01:30:23.942Z,74.03
2023-02-11T01:31:26.377Z,78.88
2023-02-11T01:32:28.740Z,80.67
2023-02-11T01:33:33.407Z,88.17
2023-02-11T01:34:35.814Z,96.68
2023-02-11T01:35:39.595Z,101.27
2023-02-11T01:36:42.120Z,104.93
2023-02-11T01:37:44.641Z,102.55
2023-02-11T01:38:46.976Z,101.75
2023-02-11T01:39:49.325Z,98.92
2023-02-11T01:40:57.483Z,97.15
2023-02-11T01:42:00.126Z,94.40
2023-02-11T01:43:02.456Z,94.32
2023-02-11T01:44:27.805Z,97.33
2023-02-11T01:46:05.511Z,97.68
2023-02-11T01:47:08.112Z,94.33
2023-02-11T01:48:14.489Z,91.05
2023-02-11T01:49:27.975Z,86.30
2023-02-11T01:50:31.266Z,87.33
2023-02-11T01:51:42.130Z,80.90
2023-02-11T01:52:47.245Z,81.45
2023-02-11T01:54:09.263Z,77.37
2023-02-11T01:55:32.233Z,77.90
2023-02-11T01:56:56.832Z,76.98
2023-02-11T01:58:04.827Z,76.87
2023-02-11T01:59:15.769Z,79.13
2023-02-11T02:01:32.065Z,79.22
2023-02-11T02:02:55.797Z,80.53
2023-02-11T02:04:01.888Z,78.20
2023-02-11T02:05:30.841Z,78.30
2023-02-11T02:06:38.282Z,77.70
2023-02-11T02:07:52.906Z,78.40
2023-02-11T02:09:20.549Z,78.42
2023-02-11T02:10:26.279Z,80.10
2023-02-11T02:11:28.643Z,79.65
2023-02-11T02:12:31.041Z,79.12
2023-02-11T02:13:34.973Z,79.22
2023-02-11T02:14:40.936Z,77.23
2023-02-11T02:15:54.631Z,77.10
2023-02-11T02:16:56.979Z,71.70
2023-02-11T02:18:09.279Z,72.68
2023-02-11T02:19:39.265Z,71.05
2023-02-11T02:21:05.593Z,72.48
2023-02-11T02:22:38.569Z,72.57
2023-02-11T02:23:44.113Z,70.90
2023-02-11T02:25:04.616Z,72.43
2023-02-11T02:26:29.968Z,73.82
2023-02-11T02:27:38.374Z,74.72
2023-02-11T02:28:43.435Z,72.65
2023-02-11T02:30:07.325Z,72.90
2023-02-11T02:31:21.148Z,75.67
2023-02-11T02:32:48.302Z,73.88
2023-02-11T02:33:54.484Z,75.28
2023-02-11T02:35:34.125Z,74.15
2023-02-11T02:36:49.797Z,73.13
2023-02-11T02:38:00.281Z,71.47
2023-02-11T02:39:26.824Z,73.85
2023-02-11T02:40:37.200Z,76.10
2023-02-11T02:41:40.277Z,75.42
2023-02-11T02:42:44.157Z,74.33
2023-02-11T02:43:49.961Z,73.97
2023-02-11T02:44:53.526Z,74.88
2023-02-11T02:45:56.066Z,71.80
2023-02-11T02:46:58.504Z,71.28
2023-02-11T02:48:00.900Z,73.62
2023-02-11T02:49:04.170Z,71.63
2023-02-11T02:50:09.255Z,71.20
2023-02-11T02:51:42.873Z,71.92
2023-02-11T02:52:50.673Z,72.40
2023-02-11T02:54:21.102Z,72.57
2023-02-11T02:55:41.274Z,73.93
2023-02-11T02:57:20.259Z,71.75
2023-02-11T02:58:22.534Z,72.35
2023-02-11T02:59:36.682Z,70.65
2023-02-11T03:00:51.306Z,69.52
2023-02-11T03:02:17.516Z,71.20
2023-02-11T03:03:31.797Z,69.88
2023-02-11T03:04:54.952Z,71.00
2023-02-11T03:05:59.933Z,70.72
2023-02-11T03:07:19.937Z,71.57
2023-02-11T03:08:35.626Z,72.08
2023-02-11T03:09:49.767Z,71.55
2023-02-11T03:10:54.762Z,72.13
2023-02-11T03:11:57.341Z,71.38
2023-02-11T03:13:01.368Z,72.53
2023-02-11T03:14:06.374Z,70.97
2023-02-11T03:15:09.349Z,70.50
2023-02-11T03:16:15.796Z,71.03
2023-02-11T03:17:19.166Z,70.37
2023-02-11T03:18:25.744Z,72.78
2023-02-11T03:19:37.649Z,73.22
2023-02-11T03:20:42.581Z,73.23
2023-02-11T03:21:47.869Z,74.15
2023-02-11T03:23:15.320Z,75.00
2023-02-11T03:24:40.216Z,74.57
2023-02-11T03:25:47.239Z,74.57
2023-02-11T03:26:55.404Z,75.10
2023-02-11T03:28:10.329Z,76.73
2023-02-11T03:29:40.465Z,76.40
2023-02-11T03:31:07.603Z,73.93
2023-02-11T03:32:16.401Z,74.97
2023-02-11T03:33:29.675Z,74.27
2023-02-11T03:34:54.843Z,74.85
2023-02-11T03:36:02.315Z,73.15
2023-02-11T03:37:16.833Z,72.27
2023-02-11T03:38:28.236Z,73.38
2023-02-11T03:39:40.678Z,74.78
2023-02-11T03:40:45.767Z,72.53
2023-02-11T03:41:50.234Z,72.62
2023-02-11T03:43:03.340Z,74.23
2023-02-11T03:44:07.270Z,73.35
2023-02-11T03:45:12.621Z,71.88
2023-02-11T03:46:18.644Z,73.82
2023-02-11T03:47:26.718Z,70.65
2023-02-11T03:48:35.555Z,72.23
2023-02-11T03:49:40.078Z,74.70
2023-02-11T03:50:44.912Z,73.02
2023-02-11T03:51:51.110Z,72.45
2023-02-11T03:52:55.226Z,71.60
2023-02-11T03:54:00.615Z,74.47
2023-02-11T03:55:09.307Z,72.67
2023-02-11T03:56:17.399Z,71.42
2023-02-11T03:57:19.794Z,73.32
2023-02-11T03:58:22.394Z,71.63
2023-02-11T03:59:25.707Z,72.27
2023-02-11T04:00:36.741Z,73.62
2023-02-11T04:01:39.082Z,71.88
2023-02-11T04:02:42.116Z,72.62
2023-02-11T04:03:44.510Z,73.32
2023-02-11T04:04:47.382Z,72.57
2023-02-11T04:05:50.119Z,74.43
2023-02-11T04:06:52.763Z,74.13
2023-02-11T04:07:55.140Z,71.70
2023-02-11T04:08:57.633Z,73.80
2023-02-11T04:10:00.024Z,73.55
2023-02-11T04:11:02.364Z,72.50
2023-02-11T04:12:04.917Z,71.73
2023-02-11T04:13:07.262Z,71.87
2023-02-11T04:14:09.641Z,72.07
2023-02-11T04:15:12.080Z,74.12
2023-02-11T04:16:14.533Z,74.57
2023-02-11T04:17:16.999Z,76.27
2023-02-11T04:18:19.394Z,74.58
2023-02-11T04:19:21.765Z,75.62
2023-02-11T04:20:24.127Z,75.20
2023-02-11T04:21:26.542Z,75.45
2023-02-11T04:22:28.891Z,75.53
2023-02-11T04:23:31.223Z,77.57
2023-02-11T04:24:34.066Z,76.80
2023-02-11T04:25:36.711Z,78.22
2023-02-11T04:26:39.177Z,76.88
2023-02-11T04:27:41.524Z,78.45
2023-02-11T04:28:43.841Z,75.85
2023-02-11T04:29:46.176Z,77.10
2023-02-11T04:30:50.689Z,75.82
2023-02-11T04:31:53.168Z,74.87
2023-02-11T04:32:55.545Z,76.22
2023-02-11T04:33:57.888Z,75.38
2023-02-11T04:35:00.231Z,72.45
2023-02-11T04:36:02.673Z,74.05
2023-02-11T04:37:05.489Z,72.97
2023-02-11T04:38:07.909Z,73.33
2023-02-11T04:39:10.313Z,71.65
2023-02-11T04:40:13.206Z,72.12
2023-02-11T04:41:15.657Z,72.45
2023-02-11T04:42:18.038Z,73.78
2023-02-11T04:43:20.444Z,72.43
2023-02-11T04:44:22.799Z,70.98
2023-02-11T04:45:25.137Z,71.55
2023-02-11T04:46:27.568Z,74.17
2023-02-11T04:47:29.951Z,73.20
2023-02-11T04:48:32.276Z,72.87
2023-02-11T04:49:34.716Z,72.48
2023-02-11T04:50:37.078Z,72.37
2023-02-11T04:51:39.491Z,75.10
2023-02-11T04:52:41.868Z,75.10
2023-02-11T04:53:44.239Z,74.68
2023-02-11T04:54:46.566Z,75.78
2023-02-11T04:55:50.798Z,76.08
2023-02-11T04:56:53.500Z,76.15
2023-02-11T04:57:55.834Z,74.77
2023-02-11T04:58:58.319Z,78.23
2023-02-11T05:00:00.697Z,80.35
2023-02-11T05:01:07.934Z,82.72
2023-02-11T05:02:10.356Z,81.67
2023-02-11T05:03:13.378Z,86.98
2023-02-11T05:04:16.351Z,88.10
2023-02-11T05:05:18.767Z,89.28
2023-02-11T05:06:21.176Z,85.72
2023-02-11T05:07:23.692Z,86.13
2023-02-11T05:08:26.067Z,86.38
2023-02-11T05:09:28.533Z,83.67
2023-02-11T05:10:30.854Z,82.87
2023-02-11T05:11:33.380Z,82.20
2023-02-11T05:12:35.731Z,82.80
2023-02-11T05:13:38.108Z,80.60
2023-02-11T05:14:40.632Z,79.23
2023-02-11T05:15:43.014Z,78.05
2023-02-11T05:16:45.443Z,77.25
2023-02-11T05:17:47.866Z,76.65
2023-02-11T05:18:52.456Z,77.68
2023-02-11T05:19:55.038Z,80.33
2023-02-11T05:20:57.705Z,80.53
2023-02-11T05:22:03.181Z,85.12
2023-02-11T05:23:06.015Z,85.97
2023-02-11T05:24:08.641Z,89.73
2023-02-11T05:25:11.122Z,93.97
2023-02-11T05:26:13.827Z,90.55
2023-02-11T05:27:16.305Z,93.88
2023-02-11T05:28:18.774Z,92.23
2023-02-11T05:29:21.142Z,94.63
2023-02-11T05:30:23.479Z,95.83
2023-02-11T05:31:25.993Z,95.73
2023-02-11T05:32:28.374Z,97.73
2023-02-11T05:33:31.017Z,97.22
2023-02-11T05:34:33.375Z,101.25
2023-02-11T05:35:35.754Z,99.25
2023-02-11T05:36:38.130Z,97.87
2023-02-11T05:37:40.524Z,98.45
2023-02-11T05:38:43.485Z,96.65
2023-02-11T05:39:45.900Z,95.93
2023-02-11T05:40:48.214Z,94.78
2023-02-11T05:41:50.646Z,97.07
2023-02-11T05:42:53.019Z,95.62
2023-02-11T05:43:55.427Z,96.13
2023-02-11T05:44:58.020Z,96.90
2023-02-11T05:46:00.452Z,97.17
2023-02-11T05:47:02.816Z,97.52
2023-02-11T05:48:05.423Z,94.80
2023-02-11T05:49:07.799Z,96.18
2023-02-11T05:50:10.223Z,96.43
2023-02-11T05:51:12.557Z,95.55
2023-02-11T05:52:14.959Z,92.28
2023-02-11T05:53:17.333Z,93.20
2023-02-11T05:54:19.974Z,94.27
2023-02-11T05:55:22.376Z,90.07
2023-02-11T05:56:24.754Z,88.42
2023-02-11T05:57:27.146Z,89.15
2023-02-11T05:58:29.569Z,88.87
2023-02-11T05:59:31.957Z,86.77
2023-02-11T06:00:35.051Z,84.75
2023-02-11T06:01:37.438Z,86.45
2023-02-11T06:02:40.327Z,87.58
2023-02-11T06:03:42.842Z,88.23
2023-02-11T06:04:45.438Z,87.25
2023-02-11T06:05:47.992Z,87.75
2023-02-11T06:06:50.453Z,85.27
2023-02-11T06:07:53.318Z,85.02
2023-02-11T06:08:56.481Z,85.67
2023-02-11T06:09:59.572Z,85.22
2023-02-11T06:11:01.944Z,82.83
2023-02-11T06:12:04.517Z,83.30
2023-02-11T06:13:06.901Z,83.02
2023-02-11T06:14:10.009Z,83.43
2023-02-11T06:15:12.409Z,81.58
2023-02-11T06:16:14.819Z,80.82
2023-02-11T06:17:17.234Z,80.12
2023-02-11T06:18:19.616Z,77.87
2023-02-11T06:19:22.017Z,76.37
2023-02-11T06:20:24.439Z,75.83
2023-02-11T06:21:42.410Z,75.45
2023-02-11T06:22:46.399Z,73.78
2023-02-11T06:23:49.274Z,74.95
2023-02-11T06:25:00.897Z,75.45
2023-02-11T06:26:08.961Z,74.15
2023-02-11T06:27:11.384Z,74.63
2023-02-11T06:28:13.818Z,75.28
2023-02-11T06:29:16.541Z,69.25
2023-02-11T06:30:19.025Z,70.15
2023-02-11T06:31:21.812Z,70.45
2023-02-11T06:32:42.740Z,70.17
2023-02-11T06:33:46.141Z,70.60
2023-02-11T06:34:48.470Z,70.98
2023-02-11T06:35:51.154Z,71.08
2023-02-11T06:36:53.719Z,72.18
2023-02-11T06:37:56.119Z,69.08
2023-02-11T06:38:58.437Z,71.95
2023-02-11T06:40:01.010Z,72.67
2023-02-11T06:41:03.417Z,72.78
2023-02-11T06:42:07.911Z,75.40
2023-02-11T06:43:10.379Z,74.72
2023-02-11T06:44:12.765Z,74.00
2023-02-11T06:45:15.113Z,73.58
2023-02-11T06:46:17.577Z,71.50
2023-02-11T06:47:19.991Z,71.57
2023-02-11T06:48:24.029Z,71.63
2023-02-11T06:49:26.385Z,72.82
2023-02-11T06:50:28.719Z,74.80
2023-02-11T06:51:31.169Z,72.48
2023-02-11T06:52:34.194Z,77.32
2023-02-11T06:53:38.681Z,79.88
2023-02-11T06:54:41.029Z,81.10
2023-02-11T06:55:43.471Z,83.20
2023-02-11T06:56:45.821Z,83.47
2023-02-11T06:57:48.156Z,84.57
2023-02-11T06:58:57.130Z,80.92
2023-02-11T06:59:59.527Z,77.68
2023-02-11T07:01:08.972Z,75.23
2023-02-11T07:02:11.431Z,77.05
2023-02-11T07:03:13.867Z,79.93
2023-02-11T07:04:16.313Z,77.98
2023-02-11T07:05:18.810Z,76.22
2023-02-11T07:06:23.148Z,73.53
2023-02-11T07:07:25.543Z,71.85
2023-02-11T07:08:27.915Z,71.47
2023-02-11T07:09:30.454Z,72.98
2023-02-11T07:10:34.197Z,72.95
2023-02-11T07:11:36.608Z,74.23
2023-02-11T07:12:38.983Z,75.10
2023-02-11T07:13:41.501Z,74.95
2023-02-11T07:14:43.894Z,73.88
2023-02-11T07:15:46.311Z,72.97
2023-02-11T07:16:48.699Z,71.00
2023-02-11T07:17:51.082Z,69.90
2023-02-11T07:18:53.901Z,70.90
2023-02-11T07:19:56.302Z,68.22
2023-02-11T07:20:58.809Z,68.45
2023-02-11T07:22:01.139Z,64.62
2023-02-11T07:23:03.466Z,64.90
2023-02-11T07:24:11.111Z,63.03
2023-02-11T07:25:13.933Z,65.45
2023-02-11T07:26:19.853Z,64.93
2023-02-11T07:27:22.259Z,65.68
2023-02-11T07:28:24.815Z,66.35
2023-02-11T07:29:27.330Z,64.87
2023-02-11T07:30:29.679Z,65.40
2023-02-11T07:31:32.523Z,65.87
2023-02-11T07:32:34.978Z,66.83
2023-02-11T07:33:37.990Z,69.65
2023-02-11T07:34:40.490Z,81.00
2023-02-11T07:35:42.844Z,95.57
2023-02-11T07:36:45.258Z,100.28
2023-02-11T07:37:47.598Z,97.00
2023-02-11T07:38:50.240Z,89.17
2023-02-11T07:39:52.643Z,80.15
2023-02-11T07:40:54.966Z,75.40
2023-02-11T07:41:57.391Z,74.22
2023-02-11T07:43:01.215Z,70.35
2023-02-11T07:44:03.712Z,68.50
2023-02-11T07:45:06.489Z,67.93
2023-02-11T07:46:11.601Z,65.17
2023-02-11T07:47:13.990Z,66.20
2023-02-11T07:48:16.331Z,67.45
2023-02-11T07:49:18.864Z,63.90
2023-02-11T07:50:21.266Z,64.12
2023-02-11T07:51:28.814Z,63.72
2023-02-11T07:52:31.446Z,64.55
2023-02-11T07:53:33.782Z,66.33
2023-02-11T07:54:36.213Z,65.13
2023-02-11T07:55:38.550Z,66.10
2023-02-11T07:56:40.937Z,65.23
2023-02-11T07:57:43.306Z,64.02
2023-02-11T07:58:48.342Z,62.70
2023-02-11T07:59:50.805Z,63.98
2023-02-11T08:00:53.248Z,64.33
2023-02-11T08:01:55.664Z,64.33
2023-02-11T08:02:58.358Z,63.55
2023-02-11T08:04:02.642Z,66.25
2023-02-11T08:05:05.221Z,64.57
2023-02-11T08:06:13.223Z,65.37
2023-02-11T08:07:19.300Z,64.03
2023-02-11T08:08:21.672Z,62.95
2023-02-11T08:09:24.032Z,65.15
2023-02-11T08:10:26.349Z,65.47
2023-02-11T08:11:29.006Z,64.57
2023-02-11T08:12:31.356Z,63.58
2023-02-11T08:13:34.067Z,63.78
2023-02-11T08:14:36.553Z,63.40
2023-02-11T08:15:38.884Z,66.17
2023-02-11T08:16:41.902Z,68.70
2023-02-11T08:17:44.318Z,68.62
2023-02-11T08:18:46.721Z,66.52
2023-02-11T08:19:49.100Z,64.23
2023-02-11T08:20:51.808Z,63.90
2023-02-11T08:21:57.436Z,63.27
2023-02-11T08:22:59.834Z,63.08
2023-02-11T08:24:03.537Z,63.13
2023-02-11T08:25:06.358Z,62.10
2023-02-11T08:26:15.977Z,62.12
2023-02-11T08:27:18.358Z,61.68
2023-02-11T08:28:20.773Z,62.52
2023-02-11T08:29:23.195Z,62.23
2023-02-11T08:30:27.210Z,61.48
2023-02-11T08:31:38.583Z,62.33
2023-02-11T08:32:41.057Z,61.12
2023-02-11T08:33:43.637Z,61.85
2023-02-11T08:34:46.175Z,61.75
2023-02-11T08:35:48.501Z,62.98
2023-02-11T08:36:50.883Z,62.93
2023-02-11T08:37:53.632Z,62.50
2023-02-11T08:39:08.513Z,63.07
2023-02-11T08:40:14.709Z,61.37
2023-02-11T08:41:18.139Z,61.90
2023-02-11T08:42:20.528Z,63.80
2023-02-11T08:43:23.716Z,63.52
2023-02-11T08:44:26.258Z,62.77
2023-02-11T08:45:28.686Z,62.07
2023-02-11T08:46:31.164Z,60.98
2023-02-11T08:47:33.565Z,63.57
2023-02-11T08:48:36.034Z,65.65
2023-02-11T08:49:38.594Z,64.75
2023-02-11T08:50:40.958Z,61.88
2023-02-11T08:51:44.027Z,64.02
2023-02-11T08:52:46.388Z,66.30
2023-02-11T08:53:48.966Z,65.32
2023-02-11T08:54:51.323Z,63.97
2023-02-11T08:55:55.023Z,62.60
2023-02-11T08:56:57.463Z,61.57
2023-02-11T08:57:59.855Z,63.43
2023-02-11T08:59:02.367Z,65.13
2023-02-11T09:00:05.697Z,62.35
2023-02-11T09:01:17.756Z,63.55
2023-02-11T09:02:20.134Z,63.17
2023-02-11T09:03:22.532Z,64.33
2023-02-11T09:04:25.084Z,64.38
2023-02-11T09:05:27.756Z,64.88
2023-02-11T09:06:30.293Z,64.90
2023-02-11T09:07:32.622Z,64.17
2023-02-11T09:08:40.067Z,63.75
2023-02-11T09:09:42.446Z,63.78
2023-02-11T09:10:44.927Z,65.03
2023-02-11T09:11:48.259Z,62.85
2023-02-11T09:12:50.773Z,63.45
2023-02-11T09:13:54.413Z,63.52
2023-02-11T09:14:57.058Z,63.33
2023-02-11T09:16:00.329Z,64.42
2023-02-11T09:17:02.861Z,63.22
2023-02-11T09:18:05.637Z,62.55
2023-02-11T09:19:09.727Z,63.27
2023-02-11T09:20:12.229Z,63.43
2023-02-11T09:21:16.672Z,61.63
2023-02-11T09:22:19.032Z,62.67
2023-02-11T09:23:21.390Z,61.92
2023-02-11T09:24:23.756Z,63.15
2023-02-11T09:25:26.857Z,62.68
2023-02-11T09:26:33.796Z,62.50
2023-02-11T09:27:36.102Z,62.22
2023-02-11T09:28:38.466Z,61.12
2023-02-11T09:29:40.914Z,61.93
2023-02-11T09:30:43.400Z,62.00
2023-02-11T09:31:46.007Z,60.33
2023-02-11T09:32:48.568Z,62.15
2023-02-11T09:33:53.587Z,61.83
2023-02-11T09:34:55.926Z,60.58
2023-02-11T09:36:02.073Z,61.72
2023-02-11T09:37:04.574Z,62.65
2023-02-11T09:38:07.229Z,61.88
2023-02-11T09:39:13.693Z,60.62
2023-02-11T09:40:17.234Z,62.98
2023-02-11T09:41:25.396Z,63.55
2023-02-11T09:43:03.791Z,63.92
2023-02-11T09:44:09.216Z,62.68
2023-02-11T09:45:24.607Z,64.68
2023-02-11T09:46:31.639Z,62.73
2023-02-11T09:47:45.955Z,63.58
2023-02-11T09:48:49.671Z,62.33
2023-02-11T09:50:00.404Z,62.03
2023-02-11T09:51:04.476Z,62.90
2023-02-11T09:52:25.609Z,63.90
2023-02-11T09:53:31.569Z,62.22
2023-02-11T09:54:58.029Z,63.85
2023-02-11T09:56:02.646Z,64.53
2023-02-11T09:57:06.331Z,66.38
2023-02-11T09:58:25.337Z,66.10
2023-02-11T09:59:27.773Z,65.67
2023-02-11T10:00:51.808Z,65.05
2023-02-11T10:02:18.356Z,65.85
2023-02-11T10:03:51.005Z,69.85
2023-02-11T10:04:55.977Z,67.82
2023-02-11T10:06:10.818Z,67.33
2023-02-11T10:07:37.793Z,63.00
2023-02-11T10:08:59.651Z,62.57
2023-02-11T10:10:10.957Z,63.03
2023-02-11T10:11:50.390Z,62.93
2023-02-11T10:13:19.005Z,61.57
2023-02-11T10:14:45.660Z,60.45
2023-02-11T10:16:15.600Z,60.73
2023-02-11T10:17:39.066Z,59.87
2023-02-11T10:19:14.105Z,57.07
2023-02-11T10:20:32.549Z,57.78
2023-02-11T10:21:47.847Z,57.65
2023-02-11T10:23:21.370Z,58.42
2023-02-11T10:24:24.256Z,60.70
2023-02-11T10:25:30.297Z,60.33
2023-02-11T10:26:34.101Z,57.68
2023-02-11T10:27:36.496Z,56.20
2023-02-11T10:28:40.629Z,55.05
2023-02-11T10:30:07.164Z,55.78
2023-02-11T10:31:26.338Z,54.40
2023-02-11T10:32:40.284Z,55.25
2023-02-11T10:33:47.344Z,54.00
2023-02-11T10:34:50.743Z,54.67
2023-02-11T10:35:53.156Z,54.08
2023-02-11T10:36:57.998Z,52.82
2023-02-11T10:38:00.906Z,50.63
2023-02-11T10:39:19.234Z,50.85
2023-02-11T10:40:25.235Z,49.07
2023-02-11T10:41:32.897Z,50.20
2023-02-11T10:42:36.114Z,49.22
2023-02-11T10:43:38.783Z,49.92
2023-02-11T10:44:53.688Z,49.52
2023-02-11T10:45:57.041Z,49.30
2023-02-11T10:47:03.508Z,49.80
2023-02-11T10:48:07.325Z,48.67
2023-02-11T10:49:09.664Z,49.22
2023-02-11T10:50:26.117Z,49.58
2023-02-11T10:51:31.599Z,48.85
2023-02-11T10:52:33.964Z,48.37
2023-02-11T10:53:36.384Z,47.43
2023-02-11T10:54:38.711Z,47.53
2023-02-11T10:55:58.551Z,49.32
2023-02-11T10:57:01.001Z,50.57
2023-02-11T10:58:04.838Z,51.18
2023-02-11T10:59:28.039Z,52.30
2023-02-11T11:00:43.170Z,50.10
2023-02-11T11:01:50.160Z,51.08
2023-02-11T11:02:56.392Z,51.15
2023-02-11T11:04:00.048Z,50.65
2023-02-11T11:05:22.677Z,51.65
2023-02-11T11:06:32.747Z,51.35
2023-02-11T11:07:35.325Z,52.93
2023-02-11T11:08:49.009Z,50.33
2023-02-11T11:10:33.124Z,50.32
2023-02-11T11:11:52.372Z,50.77
2023-02-11T11:12:54.754Z,52.88
2023-02-11T11:13:59.948Z,51.92
2023-02-11T11:15:16.654Z,46.68
2023-02-11T11:16:24.800Z,49.03
2023-02-11T11:17:29.418Z,48.75
2023-02-11T11:18:31.899Z,48.58
2023-02-11T11:19:34.535Z,48.47
2023-02-11T11:20:38.043Z,48.08
2023-02-11T11:21:56.829Z,48.38
2023-02-11T11:23:15.756Z,46.92
2023-02-11T11:24:34.652Z,49.03
2023-02-11T11:25:40.081Z,47.72
2023-02-11T11:26:45.554Z,48.40
2023-02-11T11:27:53.308Z,47.02
2023-02-11T11:29:01.953Z,48.17
2023-02-11T11:30:04.662Z,48.50
2023-02-11T11:31:15.139Z,48.75
2023-02-11T11:32:26.129Z,49.17
2023-02-11T11:33:31.363Z,47.78
2023-02-11T11:34:37.297Z,46.48
2023-02-11T11:35:40.989Z,48.15
2023-02-11T11:36:44.230Z,49.47
2023-02-11T11:37:54.258Z,47.22
2023-02-11T11:38:59.073Z,48.45
2023-02-11T11:40:43.198Z,48.48
2023-02-11T11:41:54.777Z,47.40
2023-02-11T11:43:14.927Z,48.70
2023-02-11T11:44:26.713Z,46.87
2023-02-11T11:45:29.035Z,47.43
2023-02-11T11:46:33.405Z,46.45
2023-02-11T11:47:48.800Z,45.87
2023-02-11T11:48:54.685Z,48.18
2023-02-11T11:50:15.823Z,46.62
2023-02-11T11:51:18.280Z,45.55
2023-02-11T11:52:46.228Z,46.37
2023-02-11T11:53:57.580Z,46.57
2023-02-11T11:55:07.869Z,47.37
2023-02-11T11:56:17.338Z,47.92
2023-02-11T11:57:24.610Z,47.95
2023-02-11T11:58:29.688Z,47.77
2023-02-11T11:59:32.157Z,47.22
2023-02-11T12:01:06.781Z,46.60
2023-02-11T12:02:36.349Z,49.02
2023-02-11T12:03:56.924Z,47.68
2023-02-11T12:05:13.441Z,47.63
2023-02-11T12:06:30.549Z,48.77
2023-02-11T12:08:04.620Z,47.50
2023-02-11T12:09:17.446Z,47.27
2023-02-11T12:10:31.513Z,46.03
2023-02-11T12:11:45.488Z,48.20
2023-02-11T12:13:00.027Z,46.00
2023-02-11T12:14:28.462Z,47.25
2023-02-11T12:15:48.821Z,47.95
2023-02-11T12:17:05.277Z,47.75
2023-02-11T12:18:26.086Z,46.20
2023-02-11T12:20:14.215Z,44.75
2023-02-11T12:21:37.838Z,46.20
2023-02-11T12:22:54.918Z,44.73
2023-02-11T12:24:08.496Z,45.52
2023-02-11T12:25:27.521Z,43.88
2023-02-11T12:26:38.712Z,43.80
2023-02-11T12:28:14.906Z,42.82
2023-02-11T12:29:44.407Z,42.03
2023-02-11T12:31:06.923Z,43.08
2023-02-11T12:32:16.171Z,42.02
2023-02-11T12:33:21.402Z,39.32
2023-02-11T12:34:42.222Z,42.62
2023-02-11T12:35:58.544Z,43.95
2023-02-11T12:37:10.648Z,41.67
2023-02-11T12:38:29.056Z,41.43
2023-02-11T12:39:47.409Z,42.83
2023-02-11T12:41:02.465Z,41.53
2023-02-11T12:43:07.524Z,40.07
2023-02-11T12:44:21.675Z,39.33
2023-02-11T12:45:33.449Z,38.95
2023-02-11T12:46:49.306Z,38.93
2023-02-11T12:48:29.756Z,38.92
2023-02-11T12:50:29.353Z,38.75
2023-02-11T12:52:01.033Z,38.03
2023-02-11T12:53:12.278Z,37.17
2023-02-11T12:54:23.231Z,37.77
2023-02-11T12:55:27.369Z,38.22
2023-02-11T12:56:38.953Z,37.53
2023-02-11T12:57:42.376Z,36.67
2023-02-11T12:58:45.886Z,37.88
2023-02-11T12:59:56.686Z,36.30
2023-02-11T13:01:06.275Z,35.93
2023-02-11T13:02:22.001Z,34.95
2023-02-11T13:03:53.099Z,33.68
2023-02-11T13:05:00.400Z,34.92
2023-02-11T13:06:07.996Z,34.40
2023-02-11T13:07:16.504Z,33.35
2023-02-11T13:08:34.604Z,34.90
2023-02-11T13:09:43.772Z,35.72
2023-02-11T13:11:03.787Z,33.13
2023-02-11T13:12:25.138Z,33.68
2023-02-11T13:13:30.688Z,33.07
2023-02-11T13:14:40.405Z,33.57
2023-02-11T13:16:09.949Z,33.98
2023-02-11T13:17:23.373Z,32.33
2023-02-11T13:18:35.516Z,33.50
2023-02-11T13:19:53.044Z,33.80
2023-02-11T13:21:10.699Z,32.13
2023-02-11T13:22:35.522Z,33.52
2023-02-11T13:24:05.499Z,32.20
2023-02-11T13:25:33.534Z,32.30
2023-02-11T13:27:10.172Z,33.30
2023-02-11T13:28:30.076Z,32.80
2023-02-11T13:30:13.352Z,32.30
2023-02-11T13:31:16.937Z,32.48
2023-02-11T13:32:19.382Z,32.40
2023-02-11T13:33:32.972Z,33.48
2023-02-11T13:34:41.181Z,32.38
2023-02-11T13:35:48.732Z,31.82
2023-02-11T13:36:55.511Z,31.00
2023-02-11T13:38:00.510Z,30.13
2023-02-11T13:39:06.211Z,29.95
2023-02-11T13:40:23.281Z,30.73
2023-02-11T13:41:41.063Z,31.80
2023-02-11T13:42:51.819Z,32.33
2023-02-11T13:44:01.524Z,33.55
2023-02-11T13:45:37.678Z,34.08
2023-02-11T13:47:01.490Z,32.67
2023-02-11T13:48:06.693Z,31.70
2023-02-11T13:49:19.470Z,30.68
2023-02-11T13:50:25.944Z,32.45
2023-02-11T13:51:41.476Z,30.20
2023-02-11T13:52:44.761Z,30.38
2023-02-11T13:53:52.570Z,31.60
2023-02-11T13:54:58.317Z,30.25
2023-02-11T13:56:12.800Z,29.27
2023-02-11T13:57:21.091Z,29.60
2023-02-11T13:58:28.933Z,30.78
2023-02-11T13:59:33.052Z,31.55
2023-02-11T14:00:35.491Z,30.40
2023-02-11T14:02:18.474Z,29.75
2023-02-11T14:03:56.372Z,29.65
2023-02-11T14:05:23.253Z,30.88
2023-02-11T14:06:47.065Z,30.63
2023-02-11T14:08:26.179Z,29.37
2023-02-11T14:09:36.346Z,31.03
2023-02-11T14:10:41.161Z,31.07
2023-02-11T14:11:49.377Z,30.73
2023-02-11T14:13:20.018Z,30.78
2023-02-11T14:14:23.941Z,30.43
2023-02-11T14:15:27.296Z,30.47
2023-02-11T14:16:38.076Z,30.70
2023-02-11T14:17:41.095Z,30.23
2023-02-11T14:18:49.204Z,30.38
2023-02-11T14:19:51.953Z,29.72
2023-02-11T14:21:13.356Z,30.17
2023-02-11T14:22:20.471Z,29.58
2023-02-11T14:23:27.400Z,28.82
2023-02-11T14:24:31.078Z,29.58
2023-02-11T14:25:33.687Z,28.58
2023-02-11T14:26:55.396Z,28.43
2023-02-11T14:28:04.901Z,27.15
2023-02-11T14:29:24.368Z,28.05
2023-02-11T14:30:48.052Z,28.05
2023-02-11T14:32:11.391Z,27.92
2023-02-11T14:33:17.347Z,27.17
2023-02-11T14:34:47.705Z,27.13
2023-02-11T14:36:14.488Z,26.62
2023-02-11T14:37:27.059Z,28.37